Terminal Aerodrome Forecast
Issued by NWS

Current Version | Previous Version | Text Only | Print | Product List | Glossary Off
Versions: 1 2 3 4 5 6 7 8 9 10 11 12 13 14 15 16 17 18 19 20 21 22

000
FTUS41 KPBZ 081200 AAA
TAFMGW
TAF AMD
KMGW 081226Z 0812/0912 22008KT P6SM BKN035
     FM081500 22010G20KT P6SM BKN035
      TEMPO 0819/0821 3SM TSRA OVC025CB
     FM082100 25012G22KT P6SM BKN035
     FM090200 26008KT P6SM BKN050=

USA.gov is the U.S. government's official web portal to all federal, state and local government web resources and services.